sensor_id;sensor_type;location;lat;lon;timestamp;temperature;humidity
14378;DHT22;7272;53.668;9.578;2023-06-04T00:00:59;11.40;99.90
14378;DHT22;7272;53.668;9.578;2023-06-04T00:04:00;11.30;99.90
14378;DHT22;7272;53.668;9.578;2023-06-04T00:07:01;11.30;99.90
14378;DHT22;7272;53.668;9.578;2023-06-04T00:10:04;11.20;99.90
14378;DHT22;7272;53.668;9.578;2023-06-04T00:13:05;11.20;99.90
14378;DHT22;7272;53.668;9.578;2023-06-04T00:16:07;11.30;99.90
14378;DHT22;7272;53.668;9.578;2023-06-04T00:19:08;11.40;99.90
14378;DHT22;7272;53.668;9.578;2023-06-04T00:22:09;11.40;99.90
14378;DHT22;7272;53.668;9.578;2023-06-04T00:25:11;11.50;99.90
14378;DHT22;7272;53.668;9.578;2023-06-04T00:28:12;11.50;99.90
14378;DHT22;7272;53.668;9.578;2023-06-04T00:31:14;11.40;99.90
14378;DHT22;7272;53.668;9.578;2023-06-04T00:34:16;11.40;99.90
14378;DHT22;7272;53.668;9.578;2023-06-04T00:37:18;11.30;99.90
14378;DHT22;7272;53.668;9.578;2023-06-04T00:40:19;11.20;99.90
14378;DHT22;7272;53.668;9.578;2023-06-04T00:43:20;11.20;99.90
14378;DHT22;7272;53.668;9.578;2023-06-04T00:46:22;11.10;99.90
14378;DHT22;7272;53.668;9.578;2023-06-04T00:49:24;11.20;99.90
14378;DHT22;7272;53.668;9.578;2023-06-04T00:52:25;11.20;99.90
14378;DHT22;7272;53.668;9.578;2023-06-04T00:55:27;11.10;99.90
14378;DHT22;7272;53.668;9.578;2023-06-04T00:58:28;11.10;99.90
14378;DHT22;7272;53.668;9.578;2023-06-04T01:01:37;11.00;99.90
14378;DHT22;7272;53.668;9.578;2023-06-04T01:04:46;11.00;99.90
14378;DHT22;7272;53.668;9.578;2023-06-04T01:07:48;10.90;99.90
14378;DHT22;7272;53.668;9.578;2023-06-04T01:10:51;10.90;99.90
14378;DHT22;7272;53.668;9.578;2023-06-04T01:13:52;11.10;99.90
14378;DHT22;7272;53.668;9.578;2023-06-04T01:16:59;11.10;99.90
14378;DHT22;7272;53.668;9.578;2023-06-04T01:20:16;11.00;99.90
14378;DHT22;7272;53.668;9.578;2023-06-04T01:23:26;11.00;99.90
14378;DHT22;7272;53.668;9.578;2023-06-04T01:26:34;10.80;99.90
14378;DHT22;7272;53.668;9.578;2023-06-04T01:29:37;10.70;99.90
14378;DHT22;7272;53.668;9.578;2023-06-04T01:32:38;10.50;99.90
14378;DHT22;7272;53.668;9.578;2023-06-04T01:35:40;10.50;99.90
14378;DHT22;7272;53.668;9.578;2023-06-04T01:38:41;10.40;99.90
14378;DHT22;7272;53.668;9.578;2023-06-04T01:41:42;10.30;99.90
14378;DHT22;7272;53.668;9.578;2023-06-04T01:44:44;10.20;99.90
14378;DHT22;7272;53.668;9.578;2023-06-04T01:47:46;10.10;99.90
14378;DHT22;7272;53.668;9.578;2023-06-04T01:50:47;10.00;99.90
14378;DHT22;7272;53.668;9.578;2023-06-04T01:53:48;10.00;99.90
14378;DHT22;7272;53.668;9.578;2023-06-04T01:56:50;10.00;99.90
14378;DHT22;7272;53.668;9.578;2023-06-04T01:59:51;9.90;99.90
14378;DHT22;7272;53.668;9.578;2023-06-04T02:02:52;9.90;99.90
14378;DHT22;7272;53.668;9.578;2023-06-04T02:05:56;9.80;99.90
14378;DHT22;7272;53.668;9.578;2023-06-04T02:08:57;9.80;99.90
14378;DHT22;7272;53.668;9.578;2023-06-04T02:11:58;9.70;99.90
14378;DHT22;7272;53.668;9.578;2023-06-04T02:14:59;9.70;99.90
14378;DHT22;7272;53.668;9.578;2023-06-04T02:18:13;9.60;99.90
14378;DHT22;7272;53.668;9.578;2023-06-04T02:21:16;9.60;99.90
14378;DHT22;7272;53.668;9.578;2023-06-04T02:24:18;9.70;99.90
14378;DHT22;7272;53.668;9.578;2023-06-04T02:27:19;9.80;99.90
14378;DHT22;7272;53.668;9.578;2023-06-04T02:30:20;9.80;99.90
14378;DHT22;7272;53.668;9.578;2023-06-04T02:33:22;9.80;99.90
14378;DHT22;7272;53.668;9.578;2023-06-04T02:36:23;9.80;99.90
14378;DHT22;7272;53.668;9.578;2023-06-04T02:39:24;9.70;99.90
14378;DHT22;7272;53.668;9.578;2023-06-04T02:42:26;9.60;99.90
14378;DHT22;7272;53.668;9.578;2023-06-04T02:45:28;9.60;99.90
14378;DHT22;7272;53.668;9.578;2023-06-04T02:48:30;9.60;99.90
14378;DHT22;7272;53.668;9.578;2023-06-04T02:51:31;9.60;99.90
14378;DHT22;7272;53.668;9.578;2023-06-04T02:54:33;9.50;99.90
14378;DHT22;7272;53.668;9.578;2023-06-04T02:57:34;9.60;99.90
14378;DHT22;7272;53.668;9.578;2023-06-04T03:00:36;9.60;99.90
14378;DHT22;7272;53.668;9.578;2023-06-04T03:03:37;9.60;99.90
14378;DHT22;7272;53.668;9.578;2023-06-04T03:06:39;9.50;99.90
14378;DHT22;7272;53.668;9.578;2023-06-04T03:09:40;9.50;99.90
14378;DHT22;7272;53.668;9.578;2023-06-04T03:12:41;9.40;99.90
14378;DHT22;7272;53.668;9.578;2023-06-04T03:15:42;9.40;99.90
14378;DHT22;7272;53.668;9.578;2023-06-04T03:18:46;9.30;99.90
14378;DHT22;7272;53.668;9.578;2023-06-04T03:21:47;9.20;99.90
14378;DHT22;7272;53.668;9.578;2023-06-04T03:24:51;9.20;99.90
14378;DHT22;7272;53.668;9.578;2023-06-04T03:27:53;9.30;99.90
14378;DHT22;7272;53.668;9.578;2023-06-04T03:30:55;9.30;99.90
14378;DHT22;7272;53.668;9.578;2023-06-04T03:33:58;9.30;99.90
14378;DHT22;7272;53.668;9.578;2023-06-04T03:37:00;9.30;99.90
14378;DHT22;7272;53.668;9.578;2023-06-04T03:40:02;9.20;99.90
14378;DHT22;7272;53.668;9.578;2023-06-04T03:43:07;9.10;99.90
14378;DHT22;7272;53.668;9.578;2023-06-04T03:46:08;9.10;99.90
14378;DHT22;7272;53.668;9.578;2023-06-04T03:49:12;9.20;99.90
14378;DHT22;7272;53.668;9.578;2023-06-04T03:52:14;9.30;99.90
14378;DHT22;7272;53.668;9.578;2023-06-04T03:55:16;9.30;99.90
14378;DHT22;7272;53.668;9.578;2023-06-04T03:58:18;9.30;99.90
14378;DHT22;7272;53.668;9.578;2023-06-04T04:01:23;9.50;99.90
14378;DHT22;7272;53.668;9.578;2023-06-04T04:04:25;9.60;99.90
14378;DHT22;7272;53.668;9.578;2023-06-04T04:07:26;9.70;99.90
14378;DHT22;7272;53.668;9.578;2023-06-04T04:10:28;9.70;99.90
14378;DHT22;7272;53.668;9.578;2023-06-04T04:13:29;9.80;99.90
14378;DHT22;7272;53.668;9.578;2023-06-04T04:16:31;9.80;99.90
14378;DHT22;7272;53.668;9.578;2023-06-04T04:19:33;9.90;99.90
14378;DHT22;7272;53.668;9.578;2023-06-04T04:22:34;9.90;99.90
14378;DHT22;7272;53.668;9.578;2023-06-04T04:25:35;10.00;99.90
14378;DHT22;7272;53.668;9.578;2023-06-04T04:28:38;10.10;99.90
14378;DHT22;7272;53.668;9.578;2023-06-04T04:31:41;10.20;99.90
14378;DHT22;7272;53.668;9.578;2023-06-04T04:34:51;10.20;99.90
14378;DHT22;7272;53.668;9.578;2023-06-04T04:37:55;10.30;99.90
14378;DHT22;7272;53.668;9.578;2023-06-04T04:40:58;10.40;99.90
14378;DHT22;7272;53.668;9.578;2023-06-04T04:44:03;10.60;99.90
14378;DHT22;7272;53.668;9.578;2023-06-04T04:47:04;10.70;99.90
14378;DHT22;7272;53.668;9.578;2023-06-04T04:50:07;10.80;99.90
14378;DHT22;7272;53.668;9.578;2023-06-04T04:53:08;11.00;99.90
14378;DHT22;7272;53.668;9.578;2023-06-04T04:56:11;11.00;99.90
14378;DHT22;7272;53.668;9.578;2023-06-04T04:59:16;11.10;99.90
14378;DHT22;7272;53.668;9.578;2023-06-04T05:02:18;11.20;99.90
14378;DHT22;7272;53.668;9.578;2023-06-04T05:05:20;11.30;99.90
14378;DHT22;7272;53.668;9.578;2023-06-04T05:08:23;11.40;99.90
14378;DHT22;7272;53.668;9.578;2023-06-04T05:11:24;11.50;99.90
14378;DHT22;7272;53.668;9.578;2023-06-04T05:14:26;11.50;99.90
14378;DHT22;7272;53.668;9.578;2023-06-04T05:17:27;11.60;99.90
14378;DHT22;7272;53.668;9.578;2023-06-04T05:20:33;11.70;99.90
14378;DHT22;7272;53.668;9.578;2023-06-04T05:23:36;11.70;99.90
14378;DHT22;7272;53.668;9.578;2023-06-04T05:26:37;11.90;99.90
14378;DHT22;7272;53.668;9.578;2023-06-04T05:29:46;12.00;99.90
14378;DHT22;7272;53.668;9.578;2023-06-04T05:32:47;12.20;99.90
14378;DHT22;7272;53.668;9.578;2023-06-04T05:35:54;12.30;99.90
14378;DHT22;7272;53.668;9.578;2023-06-04T05:38:58;12.40;99.90
14378;DHT22;7272;53.668;9.578;2023-06-04T05:42:06;12.40;99.90
14378;DHT22;7272;53.668;9.578;2023-06-04T05:45:08;12.50;99.90
14378;DHT22;7272;53.668;9.578;2023-06-04T05:48:10;12.50;99.90
14378;DHT22;7272;53.668;9.578;2023-06-04T05:51:13;12.50;99.90
14378;DHT22;7272;53.668;9.578;2023-06-04T05:54:15;12.60;99.90
14378;DHT22;7272;53.668;9.578;2023-06-04T05:57:18;12.60;99.90
14378;DHT22;7272;53.668;9.578;2023-06-04T06:00:19;12.70;99.90
14378;DHT22;7272;53.668;9.578;2023-06-04T06:03:22;12.80;99.90
14378;DHT22;7272;53.668;9.578;2023-06-04T06:06:25;12.90;99.90
14378;DHT22;7272;53.668;9.578;2023-06-04T06:09:26;13.10;99.90
14378;DHT22;7272;53.668;9.578;2023-06-04T06:12:28;13.30;99.90
14378;DHT22;7272;53.668;9.578;2023-06-04T06:15:29;13.50;99.90
14378;DHT22;7272;53.668;9.578;2023-06-04T06:18:31;13.50;99.90
14378;DHT22;7272;53.668;9.578;2023-06-04T06:21:34;13.60;99.90
14378;DHT22;7272;53.668;9.578;2023-06-04T06:24:35;13.70;99.90
14378;DHT22;7272;53.668;9.578;2023-06-04T06:27:36;13.80;99.90
14378;DHT22;7272;53.668;9.578;2023-06-04T06:30:38;13.90;99.90
14378;DHT22;7272;53.668;9.578;2023-06-04T06:33:39;14.00;99.90
14378;DHT22;7272;53.668;9.578;2023-06-04T06:36:42;14.10;99.90
14378;DHT22;7272;53.668;9.578;2023-06-04T06:39:44;14.10;99.90
14378;DHT22;7272;53.668;9.578;2023-06-04T06:42:48;14.20;99.90
14378;DHT22;7272;53.668;9.578;2023-06-04T06:45:49;14.60;99.90
14378;DHT22;7272;53.668;9.578;2023-06-04T06:48:51;14.70;99.90
14378;DHT22;7272;53.668;9.578;2023-06-04T06:51:53;14.90;99.90
14378;DHT22;7272;53.668;9.578;2023-06-04T06:54:54;15.00;99.90
14378;DHT22;7272;53.668;9.578;2023-06-04T06:57:56;15.10;99.90
14378;DHT22;7272;53.668;9.578;2023-06-04T07:00:57;15.10;99.90
14378;DHT22;7272;53.668;9.578;2023-06-04T07:03:59;15.20;99.90
14378;DHT22;7272;53.668;9.578;2023-06-04T07:07:01;15.20;99.90
14378;DHT22;7272;53.668;9.578;2023-06-04T07:10:02;15.30;99.90
14378;DHT22;7272;53.668;9.578;2023-06-04T07:13:04;15.50;99.90
14378;DHT22;7272;53.668;9.578;2023-06-04T07:16:06;15.60;99.90
14378;DHT22;7272;53.668;9.578;2023-06-04T07:19:07;15.60;99.90
14378;DHT22;7272;53.668;9.578;2023-06-04T07:22:09;15.80;99.90
14378;DHT22;7272;53.668;9.578;2023-06-04T07:25:11;15.90;99.90
14378;DHT22;7272;53.668;9.578;2023-06-04T07:28:12;16.10;99.90
14378;DHT22;7272;53.668;9.578;2023-06-04T07:31:15;16.10;99.90
14378;DHT22;7272;53.668;9.578;2023-06-04T07:34:16;16.20;99.90
14378;DHT22;7272;53.668;9.578;2023-06-04T07:37:18;16.40;99.90
14378;DHT22;7272;53.668;9.578;2023-06-04T07:40:19;16.40;99.90
14378;DHT22;7272;53.668;9.578;2023-06-04T07:43:21;16.40;99.90
14378;DHT22;7272;53.668;9.578;2023-06-04T07:46:22;16.60;99.90
14378;DHT22;7272;53.668;9.578;2023-06-04T07:49:24;16.90;99.90
14378;DHT22;7272;53.668;9.578;2023-06-04T07:52:26;17.00;99.90
14378;DHT22;7272;53.668;9.578;2023-06-04T07:55:27;16.90;99.90
14378;DHT22;7272;53.668;9.578;2023-06-04T07:58:28;17.00;99.90
14378;DHT22;7272;53.668;9.578;2023-06-04T08:01:29;17.30;99.90
14378;DHT22;7272;53.668;9.578;2023-06-04T08:04:31;17.30;99.90
14378;DHT22;7272;53.668;9.578;2023-06-04T08:07:32;17.30;99.90
14378;DHT22;7272;53.668;9.578;2023-06-04T08:10:34;17.50;99.90
14378;DHT22;7272;53.668;9.578;2023-06-04T08:13:35;17.80;99.90
14378;DHT22;7272;53.668;9.578;2023-06-04T08:16:36;17.90;99.90
14378;DHT22;7272;53.668;9.578;2023-06-04T08:19:42;18.10;99.90
14378;DHT22;7272;53.668;9.578;2023-06-04T08:22:52;18.40;99.90
14378;DHT22;7272;53.668;9.578;2023-06-04T08:26:01;18.50;99.90
14378;DHT22;7272;53.668;9.578;2023-06-04T08:29:22;18.70;99.90
14378;DHT22;7272;53.668;9.578;2023-06-04T08:32:24;18.90;99.90
14378;DHT22;7272;53.668;9.578;2023-06-04T08:35:26;19.00;99.90
14378;DHT22;7272;53.668;9.578;2023-06-04T08:38:28;19.30;99.90
14378;DHT22;7272;53.668;9.578;2023-06-04T08:41:34;19.40;99.90
14378;DHT22;7272;53.668;9.578;2023-06-04T08:44:35;19.60;99.90
14378;DHT22;7272;53.668;9.578;2023-06-04T08:47:37;19.80;99.90
14378;DHT22;7272;53.668;9.578;2023-06-04T08:50:39;19.80;99.90
14378;DHT22;7272;53.668;9.578;2023-06-04T08:53:43;19.80;99.90
14378;DHT22;7272;53.668;9.578;2023-06-04T08:56:49;20.20;99.90
14378;DHT22;7272;53.668;9.578;2023-06-04T08:59:52;20.50;99.90
14378;DHT22;7272;53.668;9.578;2023-06-04T09:02:54;20.70;99.90
14378;DHT22;7272;53.668;9.578;2023-06-04T09:05:56;20.90;99.90
14378;DHT22;7272;53.668;9.578;2023-06-04T09:09:01;20.90;99.90
14378;DHT22;7272;53.668;9.578;2023-06-04T09:12:07;21.30;99.90
14378;DHT22;7272;53.668;9.578;2023-06-04T09:15:09;21.60;99.90
14378;DHT22;7272;53.668;9.578;2023-06-04T09:18:11;21.80;99.90
14378;DHT22;7272;53.668;9.578;2023-06-04T09:21:13;21.60;99.90
14378;DHT22;7272;53.668;9.578;2023-06-04T09:24:15;21.70;99.90
14378;DHT22;7272;53.668;9.578;2023-06-04T09:27:17;21.90;99.90
14378;DHT22;7272;53.668;9.578;2023-06-04T09:30:18;22.20;99.90
14378;DHT22;7272;53.668;9.578;2023-06-04T09:33:20;22.20;99.90
14378;DHT22;7272;53.668;9.578;2023-06-04T09:36:21;22.30;99.90
14378;DHT22;7272;53.668;9.578;2023-06-04T09:39:23;22.30;99.90
14378;DHT22;7272;53.668;9.578;2023-06-04T09:42:24;22.50;99.90
14378;DHT22;7272;53.668;9.578;2023-06-04T09:45:29;22.50;99.90
14378;DHT22;7272;53.668;9.578;2023-06-04T09:48:31;22.60;99.90
14378;DHT22;7272;53.668;9.578;2023-06-04T09:51:33;22.60;99.90
14378;DHT22;7272;53.668;9.578;2023-06-04T09:54:38;22.50;99.90
14378;DHT22;7272;53.668;9.578;2023-06-04T09:57:40;22.50;99.90
14378;DHT22;7272;53.668;9.578;2023-06-04T10:00:41;22.50;99.90
14378;DHT22;7272;53.668;9.578;2023-06-04T10:03:47;22.90;99.90
14378;DHT22;7272;53.668;9.578;2023-06-04T10:06:48;23.10;99.90
14378;DHT22;7272;53.668;9.578;2023-06-04T10:09:52;23.30;99.90
14378;DHT22;7272;53.668;9.578;2023-06-04T10:12:58;23.30;99.90
14378;DHT22;7272;53.668;9.578;2023-06-04T10:16:01;23.30;99.90
14378;DHT22;7272;53.668;9.578;2023-06-04T10:19:04;23.40;99.90
14378;DHT22;7272;53.668;9.578;2023-06-04T10:22:07;23.40;99.90
14378;DHT22;7272;53.668;9.578;2023-06-04T10:25:11;23.60;99.90
14378;DHT22;7272;53.668;9.578;2023-06-04T10:28:13;23.50;99.90
14378;DHT22;7272;53.668;9.578;2023-06-04T10:31:15;23.50;99.90
14378;DHT22;7272;53.668;9.578;2023-06-04T10:34:18;23.30;99.90
14378;DHT22;7272;53.668;9.578;2023-06-04T10:37:19;23.20;99.90
14378;DHT22;7272;53.668;9.578;2023-06-04T10:40:31;23.20;99.90
14378;DHT22;7272;53.668;9.578;2023-06-04T10:43:32;23.30;99.90
14378;DHT22;7272;53.668;9.578;2023-06-04T10:46:38;23.30;99.90
14378;DHT22;7272;53.668;9.578;2023-06-04T10:49:40;23.20;99.90
14378;DHT22;7272;53.668;9.578;2023-06-04T10:52:51;23.30;99.90
14378;DHT22;7272;53.668;9.578;2023-06-04T10:55:53;23.20;99.90
14378;DHT22;7272;53.668;9.578;2023-06-04T10:58:54;23.30;99.90
14378;DHT22;7272;53.668;9.578;2023-06-04T11:02:04;23.30;99.90
14378;DHT22;7272;53.668;9.578;2023-06-04T11:05:07;23.20;99.90
14378;DHT22;7272;53.668;9.578;2023-06-04T11:08:11;23.20;99.90
14378;DHT22;7272;53.668;9.578;2023-06-04T11:11:15;23.20;99.90
14378;DHT22;7272;53.668;9.578;2023-06-04T11:14:16;23.30;99.90
14378;DHT22;7272;53.668;9.578;2023-06-04T11:17:18;23.20;99.90
14378;DHT22;7272;53.668;9.578;2023-06-04T11:20:20;23.20;99.90
14378;DHT22;7272;53.668;9.578;2023-06-04T11:23:23;23.60;99.90
14378;DHT22;7272;53.668;9.578;2023-06-04T11:26:30;23.60;99.90
14378;DHT22;7272;53.668;9.578;2023-06-04T11:29:32;23.40;99.90
14378;DHT22;7272;53.668;9.578;2023-06-04T11:32:33;23.40;99.90
14378;DHT22;7272;53.668;9.578;2023-06-04T11:35:40;23.80;99.90
14378;DHT22;7272;53.668;9.578;2023-06-04T11:38:42;24.00;99.90
14378;DHT22;7272;53.668;9.578;2023-06-04T11:41:44;24.00;99.90
14378;DHT22;7272;53.668;9.578;2023-06-04T11:44:45;24.20;99.90
14378;DHT22;7272;53.668;9.578;2023-06-04T11:47:51;24.20;99.90
14378;DHT22;7272;53.668;9.578;2023-06-04T11:50:53;23.70;99.90
14378;DHT22;7272;53.668;9.578;2023-06-04T11:53:54;23.60;99.90
14378;DHT22;7272;53.668;9.578;2023-06-04T11:56:57;23.90;99.90
14378;DHT22;7272;53.668;9.578;2023-06-04T11:59:58;23.60;99.90
14378;DHT22;7272;53.668;9.578;2023-06-04T12:03:00;23.80;99.90
14378;DHT22;7272;53.668;9.578;2023-06-04T12:06:10;24.00;99.90
14378;DHT22;7272;53.668;9.578;2023-06-04T12:09:20;24.00;99.90
14378;DHT22;7272;53.668;9.578;2023-06-04T12:12:22;24.10;99.90
14378;DHT22;7272;53.668;9.578;2023-06-04T12:15:24;23.90;99.90
14378;DHT22;7272;53.668;9.578;2023-06-04T12:18:26;23.80;99.90
14378;DHT22;7272;53.668;9.578;2023-06-04T12:21:27;24.10;99.90
14378;DHT22;7272;53.668;9.578;2023-06-04T12:24:28;24.30;99.90
14378;DHT22;7272;53.668;9.578;2023-06-04T12:27:31;24.20;99.90
14378;DHT22;7272;53.668;9.578;2023-06-04T12:30:35;24.30;99.90
14378;DHT22;7272;53.668;9.578;2023-06-04T12:33:36;24.20;99.90
14378;DHT22;7272;53.668;9.578;2023-06-04T12:36:38;24.00;99.90
14378;DHT22;7272;53.668;9.578;2023-06-04T12:39:39;23.90;99.90
14378;DHT22;7272;53.668;9.578;2023-06-04T12:42:41;23.90;99.90
14378;DHT22;7272;53.668;9.578;2023-06-04T12:45:44;23.90;99.90
14378;DHT22;7272;53.668;9.578;2023-06-04T12:48:45;24.10;99.90
14378;DHT22;7272;53.668;9.578;2023-06-04T12:51:46;23.90;99.90
14378;DHT22;7272;53.668;9.578;2023-06-04T12:54:48;23.70;99.90
14378;DHT22;7272;53.668;9.578;2023-06-04T12:57:50;23.50;99.90
14378;DHT22;7272;53.668;9.578;2023-06-04T13:00:51;23.50;99.90
14378;DHT22;7272;53.668;9.578;2023-06-04T13:03:52;23.60;99.90
14378;DHT22;7272;53.668;9.578;2023-06-04T13:06:53;23.50;99.90
14378;DHT22;7272;53.668;9.578;2023-06-04T13:09:59;23.50;99.90
14378;DHT22;7272;53.668;9.578;2023-06-04T13:13:01;23.50;99.90
14378;DHT22;7272;53.668;9.578;2023-06-04T13:16:03;23.40;99.90
14378;DHT22;7272;53.668;9.578;2023-06-04T13:19:05;23.30;99.90
14378;DHT22;7272;53.668;9.578;2023-06-04T13:22:07;23.30;99.90
14378;DHT22;7272;53.668;9.578;2023-06-04T13:25:09;23.20;99.90
14378;DHT22;7272;53.668;9.578;2023-06-04T13:28:11;23.10;99.90
14378;DHT22;7272;53.668;9.578;2023-06-04T13:31:13;23.00;99.90
14378;DHT22;7272;53.668;9.578;2023-06-04T13:34:14;23.00;99.90
14378;DHT22;7272;53.668;9.578;2023-06-04T13:37:15;23.10;99.90
14378;DHT22;7272;53.668;9.578;2023-06-04T13:40:16;23.30;99.90
14378;DHT22;7272;53.668;9.578;2023-06-04T13:43:18;23.10;99.90
14378;DHT22;7272;53.668;9.578;2023-06-04T13:46:19;22.90;99.90
14378;DHT22;7272;53.668;9.578;2023-06-04T13:49:20;22.80;99.90
14378;DHT22;7272;53.668;9.578;2023-06-04T13:52:21;22.90;99.90
14378;DHT22;7272;53.668;9.578;2023-06-04T13:55:23;22.80;99.90
14378;DHT22;7272;53.668;9.578;2023-06-04T13:58:25;22.60;99.90
14378;DHT22;7272;53.668;9.578;2023-06-04T14:01:26;22.40;99.90
14378;DHT22;7272;53.668;9.578;2023-06-04T14:04:27;22.30;99.90
14378;DHT22;7272;53.668;9.578;2023-06-04T14:07:28;22.10;99.90
14378;DHT22;7272;53.668;9.578;2023-06-04T14:10:29;22.10;99.90
14378;DHT22;7272;53.668;9.578;2023-06-04T14:13:31;22.20;99.90
14378;DHT22;7272;53.668;9.578;2023-06-04T14:16:32;22.10;99.90
14378;DHT22;7272;53.668;9.578;2023-06-04T14:19:34;21.90;99.90
14378;DHT22;7272;53.668;9.578;2023-06-04T14:22:36;21.80;99.90
14378;DHT22;7272;53.668;9.578;2023-06-04T14:25:37;21.80;99.90
14378;DHT22;7272;53.668;9.578;2023-06-04T14:28:39;21.70;99.90
14378;DHT22;7272;53.668;9.578;2023-06-04T14:31:40;21.70;99.90
14378;DHT22;7272;53.668;9.578;2023-06-04T14:34:41;21.70;99.90
14378;DHT22;7272;53.668;9.578;2023-06-04T14:37:42;21.40;99.90
14378;DHT22;7272;53.668;9.578;2023-06-04T14:40:43;21.30;99.90
14378;DHT22;7272;53.668;9.578;2023-06-04T14:43:46;21.20;99.90
14378;DHT22;7272;53.668;9.578;2023-06-04T14:46:49;21.20;99.90
14378;DHT22;7272;53.668;9.578;2023-06-04T14:49:50;21.20;99.90
14378;DHT22;7272;53.668;9.578;2023-06-04T14:52:52;21.10;99.90
14378;DHT22;7272;53.668;9.578;2023-06-04T14:55:53;21.00;99.90
14378;DHT22;7272;53.668;9.578;2023-06-04T14:58:55;20.90;99.90
14378;DHT22;7272;53.668;9.578;2023-06-04T15:01:56;20.70;99.90
14378;DHT22;7272;53.668;9.578;2023-06-04T15:04:57;20.70;99.90
14378;DHT22;7272;53.668;9.578;2023-06-04T15:07:58;20.80;99.90
14378;DHT22;7272;53.668;9.578;2023-06-04T15:10:59;20.70;99.90
14378;DHT22;7272;53.668;9.578;2023-06-04T15:14:01;20.50;99.90
14378;DHT22;7272;53.668;9.578;2023-06-04T15:17:03;20.40;99.90
14378;DHT22;7272;53.668;9.578;2023-06-04T15:20:05;20.30;99.90
14378;DHT22;7272;53.668;9.578;2023-06-04T15:23:06;20.30;99.90
14378;DHT22;7272;53.668;9.578;2023-06-04T15:26:08;20.20;99.90
14378;DHT22;7272;53.668;9.578;2023-06-04T15:29:09;20.10;99.90
14378;DHT22;7272;53.668;9.578;2023-06-04T15:32:11;20.10;99.90
14378;DHT22;7272;53.668;9.578;2023-06-04T15:35:12;20.10;99.90
14378;DHT22;7272;53.668;9.578;2023-06-04T15:38:13;20.20;99.90
14378;DHT22;7272;53.668;9.578;2023-06-04T15:41:14;20.20;99.90
14378;DHT22;7272;53.668;9.578;2023-06-04T15:44:16;20.10;99.90
14378;DHT22;7272;53.668;9.578;2023-06-04T15:47:17;19.90;99.90
14378;DHT22;7272;53.668;9.578;2023-06-04T15:50:19;19.80;99.90
14378;DHT22;7272;53.668;9.578;2023-06-04T15:53:20;19.70;99.90
14378;DHT22;7272;53.668;9.578;2023-06-04T15:56:23;19.70;99.90
14378;DHT22;7272;53.668;9.578;2023-06-04T15:59:25;19.60;99.90
14378;DHT22;7272;53.668;9.578;2023-06-04T16:02:26;19.50;99.90
14378;DHT22;7272;53.668;9.578;2023-06-04T16:05:27;19.50;99.90
14378;DHT22;7272;53.668;9.578;2023-06-04T16:08:28;19.40;99.90
14378;DHT22;7272;53.668;9.578;2023-06-04T16:11:30;19.30;99.90
14378;DHT22;7272;53.668;9.578;2023-06-04T16:14:32;19.20;99.90
14378;DHT22;7272;53.668;9.578;2023-06-04T16:17:33;19.20;99.90
14378;DHT22;7272;53.668;9.578;2023-06-04T16:20:34;19.10;99.90
14378;DHT22;7272;53.668;9.578;2023-06-04T16:23:35;19.10;99.90
14378;DHT22;7272;53.668;9.578;2023-06-04T16:26:36;19.10;99.90
14378;DHT22;7272;53.668;9.578;2023-06-04T16:29:38;19.00;99.90
14378;DHT22;7272;53.668;9.578;2023-06-04T16:32:39;19.00;99.90
14378;DHT22;7272;53.668;9.578;2023-06-04T16:35:40;18.90;99.90
14378;DHT22;7272;53.668;9.578;2023-06-04T16:38:41;18.90;99.90
14378;DHT22;7272;53.668;9.578;2023-06-04T16:41:43;18.90;99.90
14378;DHT22;7272;53.668;9.578;2023-06-04T16:44:44;18.80;99.90
14378;DHT22;7272;53.668;9.578;2023-06-04T16:47:46;18.70;99.90
14378;DHT22;7272;53.668;9.578;2023-06-04T16:50:49;18.60;99.90
14378;DHT22;7272;53.668;9.578;2023-06-04T16:53:50;18.50;99.90
14378;DHT22;7272;53.668;9.578;2023-06-04T16:56:51;18.60;99.90
14378;DHT22;7272;53.668;9.578;2023-06-04T16:59:54;18.60;99.90
14378;DHT22;7272;53.668;9.578;2023-06-04T17:02:56;18.50;99.90
14378;DHT22;7272;53.668;9.578;2023-06-04T17:05:57;18.40;99.90
14378;DHT22;7272;53.668;9.578;2023-06-04T17:08:58;18.30;99.90
14378;DHT22;7272;53.668;9.578;2023-06-04T17:11:59;18.20;99.90
14378;DHT22;7272;53.668;9.578;2023-06-04T17:15:01;18.20;99.90
14378;DHT22;7272;53.668;9.578;2023-06-04T17:18:03;18.20;99.90
14378;DHT22;7272;53.668;9.578;2023-06-04T17:21:11;18.20;99.90
14378;DHT22;7272;53.668;9.578;2023-06-04T17:24:12;18.20;99.90
14378;DHT22;7272;53.668;9.578;2023-06-04T17:27:13;18.00;99.90
14378;DHT22;7272;53.668;9.578;2023-06-04T17:30:15;18.00;99.90
14378;DHT22;7272;53.668;9.578;2023-06-04T17:33:17;17.90;99.90
14378;DHT22;7272;53.668;9.578;2023-06-04T17:36:19;17.90;99.90
14378;DHT22;7272;53.668;9.578;2023-06-04T17:39:21;17.80;99.90
14378;DHT22;7272;53.668;9.578;2023-06-04T17:42:22;17.80;99.90
14378;DHT22;7272;53.668;9.578;2023-06-04T17:45:23;17.70;99.90
14378;DHT22;7272;53.668;9.578;2023-06-04T17:48:25;17.60;99.90
14378;DHT22;7272;53.668;9.578;2023-06-04T17:51:26;17.50;99.90
14378;DHT22;7272;53.668;9.578;2023-06-04T17:54:27;17.50;99.90
14378;DHT22;7272;53.668;9.578;2023-06-04T17:57:29;17.50;99.90
14378;DHT22;7272;53.668;9.578;2023-06-04T18:00:31;17.50;99.90
14378;DHT22;7272;53.668;9.578;2023-06-04T18:03:32;17.40;99.90
14378;DHT22;7272;53.668;9.578;2023-06-04T18:06:33;17.30;99.90
14378;DHT22;7272;53.668;9.578;2023-06-04T18:09:34;17.20;99.90
14378;DHT22;7272;53.668;9.578;2023-06-04T18:12:35;17.10;99.90
14378;DHT22;7272;53.668;9.578;2023-06-04T18:15:37;17.00;99.90
14378;DHT22;7272;53.668;9.578;2023-06-04T18:18:38;17.00;99.90
14378;DHT22;7272;53.668;9.578;2023-06-04T18:21:39;16.90;99.90
14378;DHT22;7272;53.668;9.578;2023-06-04T18:24:41;16.80;99.90
14378;DHT22;7272;53.668;9.578;2023-06-04T18:27:42;16.80;99.90
14378;DHT22;7272;53.668;9.578;2023-06-04T18:30:44;16.70;99.90
14378;DHT22;7272;53.668;9.578;2023-06-04T18:33:51;16.60;99.90
14378;DHT22;7272;53.668;9.578;2023-06-04T18:36:52;16.60;99.90
14378;DHT22;7272;53.668;9.578;2023-06-04T18:39:54;16.50;99.90
14378;DHT22;7272;53.668;9.578;2023-06-04T18:42:55;16.40;99.90
14378;DHT22;7272;53.668;9.578;2023-06-04T18:45:57;16.40;99.90
14378;DHT22;7272;53.668;9.578;2023-06-04T18:48:58;16.30;99.90
14378;DHT22;7272;53.668;9.578;2023-06-04T18:52:01;16.30;99.90
14378;DHT22;7272;53.668;9.578;2023-06-04T18:55:04;16.20;99.90
14378;DHT22;7272;53.668;9.578;2023-06-04T18:58:05;16.20;99.90
14378;DHT22;7272;53.668;9.578;2023-06-04T19:01:07;16.20;99.90
14378;DHT22;7272;53.668;9.578;2023-06-04T19:04:08;16.10;99.90
14378;DHT22;7272;53.668;9.578;2023-06-04T19:07:09;16.00;99.90
14378;DHT22;7272;53.668;9.578;2023-06-04T19:10:11;15.90;99.90
14378;DHT22;7272;53.668;9.578;2023-06-04T19:13:12;15.80;99.90
14378;DHT22;7272;53.668;9.578;2023-06-04T19:16:14;15.70;99.90
14378;DHT22;7272;53.668;9.578;2023-06-04T19:19:15;15.70;99.90
14378;DHT22;7272;53.668;9.578;2023-06-04T19:22:16;15.70;99.90
14378;DHT22;7272;53.668;9.578;2023-06-04T19:25:17;15.60;99.90
14378;DHT22;7272;53.668;9.578;2023-06-04T19:28:18;15.50;99.90
14378;DHT22;7272;53.668;9.578;2023-06-04T19:31:20;15.40;99.90